createdAt,value
2018-12-16T00:01:08.023Z,85.68
2018-12-16T00:03:44.355Z,85.23
2018-12-16T00:06:17.159Z,85.16
2018-12-16T00:08:50.000Z,85.15
2018-12-16T00:11:23.096Z,84.97
2018-12-16T00:13:53.905Z,84.79
2018-12-16T00:16:26.320Z,84.59
2018-12-16T00:18:59.332Z,84.39
2018-12-16T00:21:32.131Z,84.62
2018-12-16T00:24:05.234Z,84.41
2018-12-16T00:26:53.350Z,84.08
2018-12-16T00:29:26.219Z,84.30
2018-12-16T00:31:59.275Z,84.04
2018-12-16T00:34:31.978Z,84.00
2018-12-16T00:37:05.117Z,84.05
2018-12-16T00:39:38.210Z,83.67
2018-12-16T00:42:10.334Z,83.75
2018-12-16T00:44:42.541Z,83.31
2018-12-16T00:47:18.803Z,83.15
2018-12-16T00:49:54.990Z,83.37
2018-12-16T00:52:27.914Z,83.16
2018-12-16T00:55:00.881Z,82.97
2018-12-16T00:57:35.279Z,82.79
2018-12-16T01:00:12.553Z,82.81
2018-12-16T01:02:45.132Z,82.58
2018-12-16T01:05:18.147Z,82.41
2018-12-16T01:07:50.995Z,82.57
2018-12-16T01:10:23.676Z,82.14
2018-12-16T01:12:56.936Z,82.78
2018-12-16T01:15:29.965Z,82.23
2018-12-16T01:18:03.145Z,81.51
2018-12-16T01:20:36.123Z,82.39
2018-12-16T01:23:09.277Z,81.68
2018-12-16T01:25:42.155Z,82.05
2018-12-16T01:28:15.289Z,81.44
2018-12-16T01:30:48.145Z,81.29
2018-12-16T01:33:21.083Z,80.92
2018-12-16T01:35:53.942Z,81.03
2018-12-16T01:38:26.107Z,81.46
2018-12-16T01:41:05.337Z,81.20
2018-12-16T01:43:38.263Z,80.78
2018-12-16T01:46:11.107Z,80.47
2018-12-16T01:48:45.192Z,81.09
2018-12-16T01:51:18.133Z,80.02
2018-12-16T01:53:51.121Z,80.30
2018-12-16T01:56:31.175Z,79.56
2018-12-16T01:59:03.397Z,79.76
2018-12-16T02:01:38.514Z,80.32
2018-12-16T02:04:08.882Z,79.59
2018-12-16T02:06:41.839Z,80.18
2018-12-16T02:09:18.858Z,79.64
2018-12-16T02:11:51.747Z,79.15
2018-12-16T02:14:24.080Z,80.08
2018-12-16T02:16:57.031Z,79.07
2018-12-16T02:19:29.871Z,78.89
2018-12-16T02:22:02.812Z,79.90
2018-12-16T02:24:35.664Z,79.68
2018-12-16T02:27:07.724Z,79.30
2018-12-16T02:29:44.614Z,79.07
2018-12-16T02:32:15.576Z,79.56
2018-12-16T02:34:48.615Z,79.60
2018-12-16T02:37:22.008Z,78.75
2018-12-16T02:39:54.740Z,78.81
2018-12-16T02:42:27.429Z,78.60
2018-12-16T02:45:00.313Z,78.61
2018-12-16T02:47:36.520Z,78.61
2018-12-16T02:50:09.719Z,78.15
2018-12-16T02:52:42.974Z,78.17
2018-12-16T02:55:15.461Z,78.79
2018-12-16T02:57:48.584Z,78.75
2018-12-16T03:00:21.514Z,78.72
2018-12-16T03:02:58.433Z,77.79
2018-12-16T03:05:35.344Z,78.58
2018-12-16T03:08:06.507Z,78.00
2018-12-16T03:10:39.334Z,78.08
2018-12-16T03:13:12.144Z,77.99
2018-12-16T03:15:44.276Z,77.44
2018-12-16T03:18:17.309Z,77.26
2018-12-16T03:20:50.325Z,78.16
2018-12-16T03:23:23.267Z,77.34
2018-12-16T03:25:56.240Z,77.84
2018-12-16T03:28:27.171Z,77.78
2018-12-16T03:43:28.818Z,76.81
2018-12-16T03:46:05.473Z,76.25
2018-12-16T03:48:38.039Z,75.85
2018-12-16T03:51:10.738Z,75.68
2018-12-16T03:53:43.099Z,75.84
2018-12-16T03:56:16.036Z,75.54
2018-12-16T03:59:00.049Z,75.47
2018-12-16T04:01:32.626Z,75.94
2018-12-16T04:04:09.377Z,75.93
2018-12-16T04:06:43.366Z,75.64
2018-12-16T04:09:15.978Z,75.70
2018-12-16T04:11:48.195Z,74.89
2018-12-16T04:14:25.115Z,74.99
2018-12-16T04:16:58.129Z,74.80
2018-12-16T04:19:29.155Z,75.07
2018-12-16T04:22:02.076Z,75.14
2018-12-16T04:24:34.588Z,75.27
2018-12-16T04:27:07.634Z,75.01
2018-12-16T04:29:40.535Z,74.97
2018-12-16T04:32:18.374Z,74.36
2018-12-16T04:34:51.318Z,74.02
2018-12-16T04:37:24.288Z,74.71
2018-12-16T04:39:57.328Z,74.77
2018-12-16T04:42:30.252Z,74.07
2018-12-16T04:45:03.175Z,74.73
2018-12-16T04:47:36.219Z,74.28
2018-12-16T04:50:09.223Z,73.97
2018-12-16T04:52:46.103Z,74.43
2018-12-16T04:55:18.983Z,75.08
2018-12-16T04:57:51.934Z,74.86
2018-12-16T05:00:28.728Z,74.97
2018-12-16T05:03:01.854Z,74.71
2018-12-16T05:05:34.771Z,75.36
2018-12-16T05:08:07.702Z,74.78
2018-12-16T05:10:40.812Z,75.64
2018-12-16T05:13:17.768Z,75.49
2018-12-16T05:15:50.490Z,75.67
2018-12-16T05:18:23.499Z,76.07
2018-12-16T05:21:00.442Z,75.57
2018-12-16T05:23:33.479Z,76.24
2018-12-16T05:26:10.315Z,76.78
2018-12-16T05:28:43.213Z,76.85
2018-12-16T05:31:15.971Z,77.04
2018-12-16T05:33:48.483Z,76.65
2018-12-16T05:36:21.206Z,77.43
2018-12-16T05:38:58.269Z,77.15
2018-12-16T05:41:31.195Z,76.95
2018-12-16T05:44:48.542Z,77.44
2018-12-16T05:47:21.084Z,77.43
2018-12-16T05:50:14.354Z,78.28
2018-12-16T05:52:50.466Z,78.01
2018-12-16T05:55:57.555Z,79.05
2018-12-16T05:58:37.161Z,78.95
2018-12-16T06:01:33.987Z,79.58
2018-12-16T06:04:16.195Z,79.47
2018-12-16T06:06:48.531Z,80.20
2018-12-16T06:09:17.539Z,79.51
2018-12-16T06:12:30.367Z,80.46
2018-12-16T06:15:06.811Z,80.44
2018-12-16T06:17:35.840Z,80.05
2018-12-16T06:20:05.253Z,80.21
2018-12-16T06:22:34.276Z,80.36
2018-12-16T06:25:03.445Z,81.03
2018-12-16T06:27:39.671Z,81.11
2018-12-16T06:30:14.503Z,81.82
2018-12-16T06:32:43.488Z,82.06
2018-12-16T06:35:19.699Z,81.96
2018-12-16T06:37:48.708Z,81.59
2018-12-16T06:40:17.854Z,82.11
2018-12-16T06:42:46.997Z,81.84
2018-12-16T06:45:16.159Z,82.75
2018-12-16T06:50:10.857Z,82.36
2018-12-16T06:52:42.387Z,82.88
2018-12-16T06:55:12.062Z,83.49
2018-12-16T06:57:41.119Z,82.82
2018-12-16T07:00:14.120Z,83.18
2018-12-16T07:02:43.080Z,83.23
2018-12-16T07:05:12.030Z,83.65
2018-12-16T07:07:41.473Z,84.14
2018-12-16T07:10:10.413Z,83.90
2018-12-16T07:12:39.401Z,84.44
2018-12-16T07:15:08.400Z,84.55
2018-12-16T07:17:38.336Z,84.80
2018-12-16T07:20:07.844Z,85.01
2018-12-16T07:22:37.255Z,84.97
2018-12-16T07:25:06.442Z,84.35
2018-12-16T07:27:35.502Z,84.82
2018-12-16T07:30:04.616Z,85.52
2018-12-16T07:32:33.833Z,85.09
2018-12-16T07:35:02.828Z,85.68
2018-12-16T07:37:31.850Z,85.21
2018-12-16T07:40:00.921Z,85.49
2018-12-16T07:42:29.846Z,85.98
2018-12-16T07:44:58.981Z,85.63
2018-12-16T07:47:28.141Z,86.29
2018-12-16T07:49:57.137Z,86.23
2018-12-16T07:52:26.129Z,85.66
2018-12-16T07:54:55.118Z,85.82
2018-12-16T07:57:24.066Z,86.72
2018-12-16T07:59:53.026Z,86.86
2018-12-16T08:02:22.172Z,86.47
2018-12-16T08:04:51.239Z,87.08
2018-12-16T08:07:20.152Z,86.33
2018-12-16T08:09:56.889Z,87.01
2018-12-16T08:12:26.120Z,86.65
2018-12-16T08:14:55.129Z,86.98
2018-12-16T08:17:24.317Z,87.36
2018-12-16T08:19:53.285Z,87.61
2018-12-16T08:22:22.342Z,87.13
2018-12-16T08:25:33.063Z,87.73
2018-12-16T08:28:02.205Z,87.14
2018-12-16T08:30:31.113Z,88.04
2018-12-16T08:36:23.697Z,87.90
2018-12-16T08:38:52.860Z,88.03
2018-12-16T08:41:23.070Z,87.53
2018-12-16T08:43:52.297Z,88.27
2018-12-16T08:46:49.937Z,88.07
2018-12-16T08:49:18.998Z,88.32
2018-12-16T08:51:49.089Z,88.11
2018-12-16T08:54:18.264Z,87.97
2018-12-16T08:56:47.211Z,87.77
2018-12-16T09:06:02.170Z,88.86
2018-12-16T09:08:31.274Z,88.88
2018-12-16T09:11:29.356Z,88.88
2018-12-16T09:14:02.298Z,88.11
2018-12-16T09:16:39.125Z,89.00
2018-12-16T09:19:11.894Z,89.15
2018-12-16T09:22:07.041Z,88.72
2018-12-16T09:24:37.369Z,89.37
2018-12-16T09:27:06.889Z,89.65
2018-12-16T09:29:35.879Z,88.91
2018-12-16T09:32:05.189Z,88.87
2018-12-16T09:34:34.130Z,89.13
2018-12-16T09:37:03.122Z,89.51
2018-12-16T09:39:32.240Z,89.67
2018-12-16T09:42:01.382Z,89.20
2018-12-16T09:44:30.401Z,90.10
2018-12-16T09:46:59.494Z,89.42
2018-12-16T09:49:28.425Z,90.23
2018-12-16T09:51:57.317Z,90.13
2018-12-16T09:54:26.409Z,89.54
2018-12-16T09:56:55.486Z,89.66
2018-12-16T09:59:24.642Z,90.26
2018-12-16T10:01:53.681Z,89.63
2018-12-16T10:04:22.648Z,90.63
2018-12-16T10:06:51.697Z,90.49
2018-12-16T10:09:20.674Z,90.75
2018-12-16T10:11:49.724Z,89.96
2018-12-16T10:14:18.605Z,90.27
2018-12-16T10:16:47.641Z,91.10
2018-12-16T10:19:16.589Z,90.44
2018-12-16T10:21:47.534Z,90.77
2018-12-16T10:24:16.421Z,91.06
2018-12-16T10:26:46.046Z,90.66
2018-12-16T10:29:15.252Z,90.35
2018-12-16T10:31:47.959Z,90.70
2018-12-16T10:34:16.833Z,90.33
2018-12-16T10:36:45.780Z,91.27
2018-12-16T10:39:14.762Z,90.44
2018-12-16T10:41:43.896Z,90.56
2018-12-16T10:44:20.210Z,90.81
2018-12-16T10:46:49.263Z,90.67
2018-12-16T10:49:18.261Z,90.46
2018-12-16T10:54:36.744Z,91.12
2018-12-16T10:57:13.344Z,91.09
2018-12-16T10:59:50.063Z,90.52
2018-12-16T11:02:27.098Z,90.49
2018-12-16T11:05:03.449Z,90.75
2018-12-16T11:07:36.423Z,90.92
2018-12-16T11:10:07.585Z,90.39
2018-12-16T11:12:40.413Z,91.20
2018-12-16T11:15:12.835Z,91.13
2018-12-16T11:17:43.983Z,90.28
2018-12-16T11:20:20.670Z,89.94
2018-12-16T11:23:11.082Z,90.39
2018-12-16T11:25:50.485Z,90.29
2018-12-16T11:28:23.589Z,90.35
2018-12-16T11:31:05.377Z,90.83
2018-12-16T11:33:35.374Z,90.21
2018-12-16T11:36:11.560Z,89.92
2018-12-16T11:38:40.635Z,89.79
2018-12-16T11:41:13.178Z,89.91
2018-12-16T11:43:49.837Z,90.17
2018-12-16T11:46:27.465Z,89.58
2018-12-16T11:49:04.488Z,89.84
2018-12-16T11:51:37.725Z,89.45
2018-12-16T12:09:19.889Z,89.96
2018-12-16T12:11:52.493Z,90.22
2018-12-16T12:14:25.394Z,90.10
2018-12-16T12:17:07.473Z,89.51
2018-12-16T12:19:43.856Z,89.83
2018-12-16T12:25:40.638Z,89.76
2018-12-16T12:28:10.101Z,89.91
2018-12-16T12:30:39.447Z,89.79
2018-12-16T12:33:16.727Z,90.40
2018-12-16T12:35:49.496Z,90.26
2018-12-16T12:38:35.463Z,89.60
2018-12-16T12:41:12.076Z,89.52
2018-12-16T12:43:44.509Z,89.19
2018-12-16T12:46:17.481Z,89.30
2018-12-16T12:48:50.577Z,90.01
2018-12-16T12:51:23.413Z,89.30
2018-12-16T12:53:56.261Z,89.88
2018-12-16T12:56:29.232Z,89.28
2018-12-16T12:59:02.305Z,89.31
2018-12-16T13:01:32.526Z,90.19
2018-12-16T13:04:03.796Z,90.15
2018-12-16T13:06:40.421Z,89.46
2018-12-16T13:09:17.637Z,90.22
2018-12-16T13:14:20.182Z,89.20
2018-12-16T13:16:56.816Z,88.96
2018-12-16T13:19:29.666Z,89.82
2018-12-16T13:21:59.140Z,90.02
2018-12-16T13:24:28.409Z,90.07
2018-12-16T13:27:18.337Z,90.08
2018-12-16T13:29:47.618Z,89.24
2018-12-16T13:32:27.621Z,89.94
2018-12-16T13:35:04.349Z,89.42
2018-12-16T13:37:41.321Z,89.59
2018-12-16T13:40:14.253Z,90.15
2018-12-16T13:42:51.165Z,89.29
2018-12-16T13:45:24.185Z,89.28
2018-12-16T13:51:44.621Z,89.14
2018-12-16T13:54:17.969Z,89.22
2018-12-16T13:56:54.875Z,89.39
2018-12-16T13:59:31.869Z,89.84
2018-12-16T14:02:08.859Z,90.11
2018-12-16T14:04:45.797Z,89.48
2018-12-16T14:07:18.811Z,90.00
2018-12-16T14:09:51.798Z,90.25
2018-12-16T14:12:25.005Z,89.91
2018-12-16T14:15:01.573Z,89.35
2018-12-16T14:17:34.661Z,89.26
2018-12-16T14:20:08.934Z,89.26
2018-12-16T14:22:41.685Z,90.00
2018-12-16T14:25:18.581Z,89.28
2018-12-16T14:27:51.612Z,89.29
2018-12-16T14:30:24.593Z,90.09
2018-12-16T14:32:57.496Z,89.98
2018-12-16T14:35:34.475Z,90.11
2018-12-16T14:38:08.145Z,90.14
2018-12-16T14:40:40.913Z,90.12
2018-12-16T14:43:13.837Z,89.44
2018-12-16T14:45:46.769Z,89.89
2018-12-16T14:48:19.780Z,90.15
2018-12-16T14:50:56.636Z,89.39
2018-12-16T14:53:33.629Z,90.09
2018-12-16T14:56:06.675Z,90.09
2018-12-16T14:58:39.761Z,89.71
2018-12-16T15:01:12.497Z,90.52
2018-12-16T15:03:45.715Z,90.54
2018-12-16T15:06:18.901Z,90.49
2018-12-16T15:08:51.662Z,90.47
2018-12-16T15:11:24.317Z,90.48
2018-12-16T15:14:01.234Z,90.17
2018-12-16T15:16:32.390Z,90.53
2018-12-16T15:19:05.362Z,90.08
2018-12-16T15:21:36.277Z,90.36
2018-12-16T15:24:09.197Z,89.98
2018-12-16T15:26:41.968Z,90.82
2018-12-16T15:29:14.711Z,89.97
2018-12-16T15:31:47.530Z,90.65
2018-12-16T15:34:20.789Z,89.95
2018-12-16T15:36:54.797Z,90.87
2018-12-16T15:39:28.016Z,90.90
2018-12-16T15:42:05.449Z,90.20
2018-12-16T15:44:38.983Z,90.38
2018-12-16T15:47:11.789Z,90.47
2018-12-16T15:49:42.600Z,90.48
2018-12-16T15:52:15.578Z,90.66
2018-12-16T15:54:45.081Z,90.48
2018-12-16T15:57:18.006Z,91.03
2018-12-16T15:59:51.046Z,90.61
2018-12-16T16:02:23.995Z,91.37
2018-12-16T16:04:53.437Z,90.63
2018-12-16T16:07:31.020Z,91.02
2018-12-16T16:10:04.623Z,91.48
2018-12-16T16:12:45.055Z,91.54
2018-12-16T16:15:17.720Z,91.46
2018-12-16T16:17:47.295Z,91.63
2018-12-16T16:21:06.184Z,91.27
2018-12-16T16:23:35.663Z,91.03
2018-12-16T16:26:08.249Z,91.15
2018-12-16T16:28:45.856Z,91.11
2018-12-16T16:31:18.684Z,91.43
2018-12-16T16:33:48.164Z,91.22
2018-12-16T16:36:44.409Z,91.29
2018-12-16T16:39:17.805Z,91.29
2018-12-16T16:41:50.303Z,92.19
2018-12-16T16:44:28.446Z,92.09
2018-12-16T16:47:05.278Z,91.77
2018-12-16T16:49:38.046Z,92.11
2018-12-16T16:52:10.912Z,92.53
2018-12-16T16:54:44.013Z,92.57
2018-12-16T16:57:16.882Z,92.37
2018-12-16T16:59:49.601Z,92.08
2018-12-16T17:02:22.523Z,92.60
2018-12-16T17:04:55.362Z,91.85
2018-12-16T17:07:26.666Z,92.50
2018-12-16T17:09:59.636Z,92.70
2018-12-16T17:12:36.322Z,92.05
2018-12-16T17:15:13.134Z,92.76
2018-12-16T17:17:49.633Z,92.97
2018-12-16T17:20:26.780Z,92.91
2018-12-16T17:22:59.825Z,92.78
2018-12-16T17:25:36.857Z,92.67
2018-12-16T17:28:09.737Z,92.79
2018-12-16T17:31:08.943Z,92.81
2018-12-16T17:33:42.022Z,92.50
2018-12-16T17:36:19.044Z,93.18
2018-12-16T17:38:52.233Z,93.29
2018-12-16T17:41:25.046Z,92.51
2018-12-16T17:43:57.955Z,92.91
2018-12-16T17:46:31.272Z,93.45
2018-12-16T17:49:15.587Z,93.18
2018-12-16T17:51:54.352Z,93.48
2018-12-16T17:54:30.806Z,93.42
2018-12-16T17:57:03.858Z,92.83
2018-12-16T17:59:40.726Z,92.72
2018-12-16T18:02:17.477Z,93.47
2018-12-16T18:04:50.613Z,93.17
2018-12-16T18:07:23.573Z,93.03
2018-12-16T18:10:00.256Z,92.75
2018-12-16T18:12:37.357Z,93.75
2018-12-16T18:15:13.865Z,93.25
2018-12-16T18:17:44.654Z,93.56
2018-12-16T18:22:47.273Z,93.73
2018-12-16T18:25:20.357Z,93.56
2018-12-16T18:27:53.578Z,94.12
2018-12-16T18:30:26.349Z,94.04
2018-12-16T18:33:03.689Z,93.90
2018-12-16T18:35:36.426Z,94.42
2018-12-16T18:38:13.217Z,94.91
2018-12-16T18:40:46.456Z,95.26
2018-12-16T18:43:24.116Z,95.38
2018-12-16T18:46:00.906Z,94.63
2018-12-16T18:48:37.846Z,94.89
2018-12-16T18:51:10.462Z,95.48
2018-12-16T18:53:47.336Z,95.50
2018-12-16T18:56:33.313Z,94.89
2018-12-16T18:59:05.901Z,95.34
2018-12-16T19:01:42.688Z,95.10
2018-12-16T19:04:21.526Z,94.55
2018-12-16T19:06:58.673Z,94.75
2018-12-16T19:09:28.196Z,94.54
2018-12-16T19:12:05.425Z,94.60
2018-12-16T19:14:35.279Z,94.66
2018-12-16T19:17:11.916Z,94.57
2018-12-16T19:19:45.037Z,95.20
2018-12-16T19:22:34.801Z,94.61
2018-12-16T19:31:24.841Z,95.08
2018-12-16T19:34:02.030Z,94.84
2018-12-16T19:36:31.415Z,95.14
2018-12-16T19:39:34.477Z,95.41
2018-12-16T19:42:30.438Z,94.75
2018-12-16T19:45:07.969Z,94.92
2018-12-16T19:48:05.559Z,95.61
2018-12-16T19:51:25.029Z,95.70
2018-12-16T19:54:20.675Z,95.00
2018-12-16T19:57:05.241Z,95.75
2018-12-16T19:59:34.489Z,94.97
2018-12-16T20:02:03.804Z,95.70
2018-12-16T20:04:38.250Z,95.78
2018-12-16T20:07:07.749Z,94.96
2018-12-16T20:09:37.713Z,95.29
2018-12-16T20:12:07.203Z,95.70
2018-12-16T20:14:40.050Z,94.77
2018-12-16T20:20:32.988Z,95.52
2018-12-16T20:23:02.436Z,95.61
2018-12-16T20:28:00.582Z,95.98
2018-12-16T20:30:53.861Z,95.82
2018-12-16T20:33:26.764Z,96.04
2018-12-16T20:36:06.153Z,96.20
2018-12-16T20:39:02.993Z,96.01
2018-12-16T20:41:32.457Z,95.19
2018-12-16T20:44:02.802Z,95.46
2018-12-16T20:49:56.617Z,95.73
2018-12-16T20:52:26.050Z,95.55
2018-12-16T20:54:55.552Z,95.96
2018-12-16T20:57:24.925Z,95.47
2018-12-16T20:59:54.865Z,95.62
2018-12-16T21:02:24.368Z,96.24
2018-12-16T21:05:07.355Z,96.03
2018-12-16T21:08:00.901Z,95.80
2018-12-16T21:10:30.352Z,95.81
2018-12-16T21:16:29.597Z,96.26
2018-12-16T21:18:58.940Z,95.78
2018-12-16T21:21:28.386Z,96.39
2018-12-16T21:23:58.161Z,95.65
2018-12-16T21:26:27.575Z,95.75
2018-12-16T21:28:57.273Z,95.82
2018-12-16T21:31:26.712Z,96.10
2018-12-16T21:33:56.061Z,95.93
2018-12-16T21:36:25.493Z,95.69
2018-12-16T21:38:54.839Z,96.49
2018-12-16T21:42:02.554Z,96.66
2018-12-16T21:45:11.076Z,96.64
2018-12-16T21:47:47.706Z,96.60
2018-12-16T21:54:14.096Z,96.17
2018-12-16T21:56:51.648Z,96.11
2018-12-16T21:59:24.681Z,96.45
2018-12-16T22:01:54.076Z,97.01
2018-12-16T22:04:24.889Z,96.58
2018-12-16T22:06:54.309Z,96.55
2018-12-16T22:09:38.530Z,96.50
2018-12-16T22:12:33.696Z,96.24
2018-12-16T22:15:07.096Z,96.43
2018-12-16T22:17:36.509Z,96.77
2018-12-16T22:20:20.449Z,96.74
2018-12-16T22:22:56.795Z,96.48
2018-12-16T22:25:29.839Z,96.91
2018-12-16T22:30:35.441Z,96.90
2018-12-16T22:33:12.317Z,96.85
2018-12-16T22:35:41.389Z,96.57
2018-12-16T22:38:23.082Z,97.00
2018-12-16T22:40:55.497Z,96.71
2018-12-16T22:43:24.396Z,96.91
2018-12-16T22:46:00.547Z,96.67
2018-12-16T22:48:33.727Z,96.57
2018-12-16T22:51:10.358Z,96.75
2018-12-16T22:53:39.363Z,96.46
2018-12-16T22:56:11.868Z,97.01
2018-12-16T22:58:41.295Z,96.41
2018-12-16T23:01:23.448Z,96.61
2018-12-16T23:04:05.485Z,97.21
2018-12-16T23:06:37.499Z,97.14
2018-12-16T23:09:07.702Z,96.76
2018-12-16T23:11:36.730Z,97.10
2018-12-16T23:14:13.544Z,96.61
2018-12-16T23:17:16.907Z,96.59
2018-12-16T23:20:07.357Z,97.20
2018-12-16T23:22:49.197Z,96.63
2018-12-16T23:25:25.761Z,96.73
2018-12-16T23:27:54.758Z,97.14
2018-12-16T23:30:23.625Z,97.13
2018-12-16T23:35:21.924Z,96.92
2018-12-16T23:38:01.691Z,96.94
2018-12-16T23:40:38.495Z,97.05
2018-12-16T23:43:15.182Z,96.57
2018-12-16T23:45:48.009Z,97.29
2018-12-16T23:48:20.965Z,96.79
2018-12-16T23:51:03.053Z,97.07
2018-12-16T23:53:55.642Z,96.90
2018-12-16T23:56:32.245Z,96.99
2018-12-16T23:59:09.214Z,96.87
